sensor_id;sensor_type;location;lat;lon;timestamp;temperature;humidity
2158;DHT22;41972;48.774;9.282;2023-04-16T00:00:09;7.10;99.90
2158;DHT22;41972;48.774;9.282;2023-04-16T00:02:35;7.00;99.90
2158;DHT22;41972;48.774;9.282;2023-04-16T00:05:01;7.00;99.90
2158;DHT22;41972;48.774;9.282;2023-04-16T00:07:26;7.00;99.90
2158;DHT22;41972;48.774;9.282;2023-04-16T00:09:52;7.00;99.90
2158;DHT22;41972;48.774;9.282;2023-04-16T00:12:17;7.00;99.90
2158;DHT22;41972;48.774;9.282;2023-04-16T00:14:43;7.00;99.90
2158;DHT22;41972;48.774;9.282;2023-04-16T00:17:09;7.00;99.90
2158;DHT22;41972;48.774;9.282;2023-04-16T00:19:35;7.00;99.90
2158;DHT22;41972;48.774;9.282;2023-04-16T00:22:00;7.00;99.90
2158;DHT22;41972;48.774;9.282;2023-04-16T00:24:26;7.10;99.90
2158;DHT22;41972;48.774;9.282;2023-04-16T00:26:51;7.00;99.90
2158;DHT22;41972;48.774;9.282;2023-04-16T00:29:17;7.10;99.90
2158;DHT22;41972;48.774;9.282;2023-04-16T00:31:44;7.00;99.90
2158;DHT22;41972;48.774;9.282;2023-04-16T00:34:09;7.00;99.90
2158;DHT22;41972;48.774;9.282;2023-04-16T00:36:35;7.00;99.90
2158;DHT22;41972;48.774;9.282;2023-04-16T00:39:01;7.20;99.90
2158;DHT22;41972;48.774;9.282;2023-04-16T00:41:26;7.00;99.90
2158;DHT22;41972;48.774;9.282;2023-04-16T00:43:52;7.00;99.90
2158;DHT22;41972;48.774;9.282;2023-04-16T00:46:24;7.00;99.90
2158;DHT22;41972;48.774;9.282;2023-04-16T00:48:50;7.00;99.90
2158;DHT22;41972;48.774;9.282;2023-04-16T00:51:17;7.00;99.90
2158;DHT22;41972;48.774;9.282;2023-04-16T00:53:44;7.00;99.90
2158;DHT22;41972;48.774;9.282;2023-04-16T00:56:11;7.00;99.90
2158;DHT22;41972;48.774;9.282;2023-04-16T00:58:38;7.00;99.90
2158;DHT22;41972;48.774;9.282;2023-04-16T01:01:04;7.00;99.90
2158;DHT22;41972;48.774;9.282;2023-04-16T01:03:43;6.90;99.90
2158;DHT22;41972;48.774;9.282;2023-04-16T01:06:10;7.00;99.90
2158;DHT22;41972;48.774;9.282;2023-04-16T01:08:36;6.90;99.90
2158;DHT22;41972;48.774;9.282;2023-04-16T01:11:02;6.90;99.90
2158;DHT22;41972;48.774;9.282;2023-04-16T01:13:28;7.00;99.90
2158;DHT22;41972;48.774;9.282;2023-04-16T01:15:53;7.00;99.90
2158;DHT22;41972;48.774;9.282;2023-04-16T01:18:20;6.90;99.90
2158;DHT22;41972;48.774;9.282;2023-04-16T01:20:47;7.00;99.90
2158;DHT22;41972;48.774;9.282;2023-04-16T01:23:13;7.00;99.90
2158;DHT22;41972;48.774;9.282;2023-04-16T01:25:39;7.00;99.90
2158;DHT22;41972;48.774;9.282;2023-04-16T01:28:05;6.90;99.90
2158;DHT22;41972;48.774;9.282;2023-04-16T01:30:31;7.00;99.90
2158;DHT22;41972;48.774;9.282;2023-04-16T01:32:56;7.00;99.90
2158;DHT22;41972;48.774;9.282;2023-04-16T01:35:23;7.00;99.90
2158;DHT22;41972;48.774;9.282;2023-04-16T01:37:49;7.00;99.90
2158;DHT22;41972;48.774;9.282;2023-04-16T01:40:15;7.00;99.90
2158;DHT22;41972;48.774;9.282;2023-04-16T01:42:41;7.00;99.90
2158;DHT22;41972;48.774;9.282;2023-04-16T01:45:07;6.90;99.90
2158;DHT22;41972;48.774;9.282;2023-04-16T01:47:32;6.90;99.90
2158;DHT22;41972;48.774;9.282;2023-04-16T01:49:59;6.90;99.90
2158;DHT22;41972;48.774;9.282;2023-04-16T01:52:25;7.00;99.90
2158;DHT22;41972;48.774;9.282;2023-04-16T01:54:50;6.90;99.90
2158;DHT22;41972;48.774;9.282;2023-04-16T01:57:16;7.00;99.90
2158;DHT22;41972;48.774;9.282;2023-04-16T01:59:41;7.00;99.90
2158;DHT22;41972;48.774;9.282;2023-04-16T02:02:11;7.10;99.90
2158;DHT22;41972;48.774;9.282;2023-04-16T02:04:41;7.10;99.90
2158;DHT22;41972;48.774;9.282;2023-04-16T02:07:08;7.00;99.90
2158;DHT22;41972;48.774;9.282;2023-04-16T02:09:35;7.10;99.90
2158;DHT22;41972;48.774;9.282;2023-04-16T02:12:01;7.10;99.90
2158;DHT22;41972;48.774;9.282;2023-04-16T02:14:30;7.10;99.90
2158;DHT22;41972;48.774;9.282;2023-04-16T02:16:56;7.00;99.90
2158;DHT22;41972;48.774;9.282;2023-04-16T02:19:21;7.00;99.90
2158;DHT22;41972;48.774;9.282;2023-04-16T02:21:47;7.00;99.90
2158;DHT22;41972;48.774;9.282;2023-04-16T02:24:13;7.10;99.90
2158;DHT22;41972;48.774;9.282;2023-04-16T02:26:39;7.10;99.90
2158;DHT22;41972;48.774;9.282;2023-04-16T02:29:05;7.70;99.90
2158;DHT22;41972;48.774;9.282;2023-04-16T02:31:30;7.00;99.90
2158;DHT22;41972;48.774;9.282;2023-04-16T02:33:56;7.00;99.90
2158;DHT22;41972;48.774;9.282;2023-04-16T02:36:21;7.00;99.90
2158;DHT22;41972;48.774;9.282;2023-04-16T02:38:47;7.00;99.90
2158;DHT22;41972;48.774;9.282;2023-04-16T02:41:12;7.00;99.90
2158;DHT22;41972;48.774;9.282;2023-04-16T02:43:38;7.00;99.90
2158;DHT22;41972;48.774;9.282;2023-04-16T02:46:03;7.10;99.90
2158;DHT22;41972;48.774;9.282;2023-04-16T02:48:29;7.10;99.90
2158;DHT22;41972;48.774;9.282;2023-04-16T02:50:56;7.10;99.90
2158;DHT22;41972;48.774;9.282;2023-04-16T02:53:22;7.10;99.90
2158;DHT22;41972;48.774;9.282;2023-04-16T02:55:51;7.00;99.90
2158;DHT22;41972;48.774;9.282;2023-04-16T02:58:17;7.00;99.90
2158;DHT22;41972;48.774;9.282;2023-04-16T03:00:43;7.10;99.90
2158;DHT22;41972;48.774;9.282;2023-04-16T03:03:09;7.00;99.90
2158;DHT22;41972;48.774;9.282;2023-04-16T03:05:34;7.00;99.90
2158;DHT22;41972;48.774;9.282;2023-04-16T03:08:00;7.00;99.90
2158;DHT22;41972;48.774;9.282;2023-04-16T03:10:25;7.10;99.90
2158;DHT22;41972;48.774;9.282;2023-04-16T03:12:51;7.10;99.90
2158;DHT22;41972;48.774;9.282;2023-04-16T03:15:17;7.10;99.90
2158;DHT22;41972;48.774;9.282;2023-04-16T03:17:42;7.20;99.90
2158;DHT22;41972;48.774;9.282;2023-04-16T03:20:08;7.20;99.90
2158;DHT22;41972;48.774;9.282;2023-04-16T03:22:34;7.20;99.90
2158;DHT22;41972;48.774;9.282;2023-04-16T03:25:00;7.10;99.90
2158;DHT22;41972;48.774;9.282;2023-04-16T03:27:25;7.10;99.90
2158;DHT22;41972;48.774;9.282;2023-04-16T03:29:51;7.10;99.90
2158;DHT22;41972;48.774;9.282;2023-04-16T03:32:16;7.10;99.90
2158;DHT22;41972;48.774;9.282;2023-04-16T03:34:42;7.00;99.90
2158;DHT22;41972;48.774;9.282;2023-04-16T03:37:07;7.00;99.90
2158;DHT22;41972;48.774;9.282;2023-04-16T03:39:36;7.00;99.90
2158;DHT22;41972;48.774;9.282;2023-04-16T03:42:02;7.00;99.90
2158;DHT22;41972;48.774;9.282;2023-04-16T03:44:28;7.00;99.90
2158;DHT22;41972;48.774;9.282;2023-04-16T03:46:54;7.00;99.90
2158;DHT22;41972;48.774;9.282;2023-04-16T03:49:20;7.00;99.90
2158;DHT22;41972;48.774;9.282;2023-04-16T03:51:45;6.90;99.90
2158;DHT22;41972;48.774;9.282;2023-04-16T03:54:11;6.90;99.90
2158;DHT22;41972;48.774;9.282;2023-04-16T03:56:39;6.90;99.90
2158;DHT22;41972;48.774;9.282;2023-04-16T03:59:04;6.90;99.90
2158;DHT22;41972;48.774;9.282;2023-04-16T04:01:30;6.90;99.90
2158;DHT22;41972;48.774;9.282;2023-04-16T04:03:55;6.90;99.90
2158;DHT22;41972;48.774;9.282;2023-04-16T04:06:21;6.90;99.90
2158;DHT22;41972;48.774;9.282;2023-04-16T04:08:46;6.90;99.90
2158;DHT22;41972;48.774;9.282;2023-04-16T04:11:12;6.90;99.90
2158;DHT22;41972;48.774;9.282;2023-04-16T04:13:38;6.90;99.90
2158;DHT22;41972;48.774;9.282;2023-04-16T04:16:04;6.90;99.90
2158;DHT22;41972;48.774;9.282;2023-04-16T04:18:30;6.90;99.90
2158;DHT22;41972;48.774;9.282;2023-04-16T04:20:56;8.10;99.90
2158;DHT22;41972;48.774;9.282;2023-04-16T04:23:22;6.90;99.90
2158;DHT22;41972;48.774;9.282;2023-04-16T04:25:47;6.90;99.90
2158;DHT22;41972;48.774;9.282;2023-04-16T04:28:13;6.90;99.90
2158;DHT22;41972;48.774;9.282;2023-04-16T04:30:39;6.90;99.90
2158;DHT22;41972;48.774;9.282;2023-04-16T04:33:05;6.90;99.90
2158;DHT22;41972;48.774;9.282;2023-04-16T04:35:31;6.80;99.90
2158;DHT22;41972;48.774;9.282;2023-04-16T04:37:56;6.80;99.90
2158;DHT22;41972;48.774;9.282;2023-04-16T04:40:22;6.80;99.90
2158;DHT22;41972;48.774;9.282;2023-04-16T04:42:47;6.90;99.90
2158;DHT22;41972;48.774;9.282;2023-04-16T04:45:13;6.90;99.90
2158;DHT22;41972;48.774;9.282;2023-04-16T04:47:39;6.90;99.90
2158;DHT22;41972;48.774;9.282;2023-04-16T04:50:05;6.90;99.90
2158;DHT22;41972;48.774;9.282;2023-04-16T04:52:30;6.90;99.90
2158;DHT22;41972;48.774;9.282;2023-04-16T04:54:56;6.80;99.90
2158;DHT22;41972;48.774;9.282;2023-04-16T04:57:21;6.90;99.90
2158;DHT22;41972;48.774;9.282;2023-04-16T04:59:47;6.80;99.90
2158;DHT22;41972;48.774;9.282;2023-04-16T05:02:12;6.90;99.90
2158;DHT22;41972;48.774;9.282;2023-04-16T05:04:38;6.90;99.90
2158;DHT22;41972;48.774;9.282;2023-04-16T05:07:04;6.90;99.90
2158;DHT22;41972;48.774;9.282;2023-04-16T05:09:30;6.90;99.90
2158;DHT22;41972;48.774;9.282;2023-04-16T05:11:56;6.80;99.90
2158;DHT22;41972;48.774;9.282;2023-04-16T05:14:22;6.90;99.90
2158;DHT22;41972;48.774;9.282;2023-04-16T05:16:47;6.90;99.90
2158;DHT22;41972;48.774;9.282;2023-04-16T05:19:13;6.90;99.90
2158;DHT22;41972;48.774;9.282;2023-04-16T05:21:38;6.90;99.90
2158;DHT22;41972;48.774;9.282;2023-04-16T05:24:05;6.90;99.90
2158;DHT22;41972;48.774;9.282;2023-04-16T05:26:30;6.90;99.90
2158;DHT22;41972;48.774;9.282;2023-04-16T05:28:56;6.90;99.90
2158;DHT22;41972;48.774;9.282;2023-04-16T05:31:21;6.90;99.90
2158;DHT22;41972;48.774;9.282;2023-04-16T05:33:47;6.90;99.90
2158;DHT22;41972;48.774;9.282;2023-04-16T05:36:12;6.90;99.90
2158;DHT22;41972;48.774;9.282;2023-04-16T05:38:38;6.90;99.90
2158;DHT22;41972;48.774;9.282;2023-04-16T05:41:04;6.90;99.90
2158;DHT22;41972;48.774;9.282;2023-04-16T05:43:29;7.00;99.90
2158;DHT22;41972;48.774;9.282;2023-04-16T05:45:55;6.90;99.90
2158;DHT22;41972;48.774;9.282;2023-04-16T05:48:21;6.80;99.90
2158;DHT22;41972;48.774;9.282;2023-04-16T05:50:47;6.90;99.90
2158;DHT22;41972;48.774;9.282;2023-04-16T05:53:13;6.90;99.90
2158;DHT22;41972;48.774;9.282;2023-04-16T05:55:38;6.90;99.90
2158;DHT22;41972;48.774;9.282;2023-04-16T05:58:04;6.80;99.90
2158;DHT22;41972;48.774;9.282;2023-04-16T06:00:31;6.80;99.90
2158;DHT22;41972;48.774;9.282;2023-04-16T06:02:57;6.80;99.90
2158;DHT22;41972;48.774;9.282;2023-04-16T06:05:25;6.80;99.90
2158;DHT22;41972;48.774;9.282;2023-04-16T06:07:51;6.80;99.90
2158;DHT22;41972;48.774;9.282;2023-04-16T06:10:17;6.90;99.90
2158;DHT22;41972;48.774;9.282;2023-04-16T06:12:42;6.90;99.90
2158;DHT22;41972;48.774;9.282;2023-04-16T06:15:08;6.90;99.90
2158;DHT22;41972;48.774;9.282;2023-04-16T06:17:34;6.80;99.90
2158;DHT22;41972;48.774;9.282;2023-04-16T06:19:59;6.80;99.90
2158;DHT22;41972;48.774;9.282;2023-04-16T06:22:25;6.90;99.90
2158;DHT22;41972;48.774;9.282;2023-04-16T06:24:52;6.90;99.90
2158;DHT22;41972;48.774;9.282;2023-04-16T06:27:17;7.00;99.90
2158;DHT22;41972;48.774;9.282;2023-04-16T06:29:43;6.90;99.90
2158;DHT22;41972;48.774;9.282;2023-04-16T06:32:09;6.80;99.90
2158;DHT22;41972;48.774;9.282;2023-04-16T06:34:36;6.80;99.90
2158;DHT22;41972;48.774;9.282;2023-04-16T06:37:02;8.20;99.90
2158;DHT22;41972;48.774;9.282;2023-04-16T06:39:27;6.90;99.90
2158;DHT22;41972;48.774;9.282;2023-04-16T06:41:53;6.90;99.90
2158;DHT22;41972;48.774;9.282;2023-04-16T06:44:18;6.90;99.90
2158;DHT22;41972;48.774;9.282;2023-04-16T06:46:44;6.90;99.90
2158;DHT22;41972;48.774;9.282;2023-04-16T06:49:09;6.90;99.90
2158;DHT22;41972;48.774;9.282;2023-04-16T06:51:35;6.90;99.90
2158;DHT22;41972;48.774;9.282;2023-04-16T06:54:01;6.90;99.90
2158;DHT22;41972;48.774;9.282;2023-04-16T06:56:26;7.00;99.90
2158;DHT22;41972;48.774;9.282;2023-04-16T06:58:52;7.00;99.90
2158;DHT22;41972;48.774;9.282;2023-04-16T07:01:19;7.00;99.90
2158;DHT22;41972;48.774;9.282;2023-04-16T07:03:44;6.90;99.90
2158;DHT22;41972;48.774;9.282;2023-04-16T07:06:10;7.00;99.90
2158;DHT22;41972;48.774;9.282;2023-04-16T07:08:36;7.10;99.90
2158;DHT22;41972;48.774;9.282;2023-04-16T07:11:01;7.00;99.90
2158;DHT22;41972;48.774;9.282;2023-04-16T07:13:27;7.10;99.90
2158;DHT22;41972;48.774;9.282;2023-04-16T07:15:52;7.10;99.90
2158;DHT22;41972;48.774;9.282;2023-04-16T07:18:18;7.10;99.90
2158;DHT22;41972;48.774;9.282;2023-04-16T07:20:44;7.10;99.90
2158;DHT22;41972;48.774;9.282;2023-04-16T07:23:10;7.20;99.90
2158;DHT22;41972;48.774;9.282;2023-04-16T07:25:36;7.10;99.90
2158;DHT22;41972;48.774;9.282;2023-04-16T07:28:02;7.00;99.90
2158;DHT22;41972;48.774;9.282;2023-04-16T07:30:28;7.20;99.90
2158;DHT22;41972;48.774;9.282;2023-04-16T07:32:59;7.20;99.90
2158;DHT22;41972;48.774;9.282;2023-04-16T07:35:25;7.10;99.90
2158;DHT22;41972;48.774;9.282;2023-04-16T07:37:50;7.20;99.90
2158;DHT22;41972;48.774;9.282;2023-04-16T07:40:16;7.20;99.90
2158;DHT22;41972;48.774;9.282;2023-04-16T07:42:42;7.20;99.90
2158;DHT22;41972;48.774;9.282;2023-04-16T07:45:08;7.20;99.90
2158;DHT22;41972;48.774;9.282;2023-04-16T07:47:33;7.20;99.90
2158;DHT22;41972;48.774;9.282;2023-04-16T07:49:59;7.30;99.90
2158;DHT22;41972;48.774;9.282;2023-04-16T07:52:24;7.20;99.90
2158;DHT22;41972;48.774;9.282;2023-04-16T07:54:51;7.20;99.90
2158;DHT22;41972;48.774;9.282;2023-04-16T07:57:16;7.30;99.90
2158;DHT22;41972;48.774;9.282;2023-04-16T07:59:42;7.20;99.90
2158;DHT22;41972;48.774;9.282;2023-04-16T08:02:10;7.20;99.90
2158;DHT22;41972;48.774;9.282;2023-04-16T08:04:37;7.30;99.90
2158;DHT22;41972;48.774;9.282;2023-04-16T08:07:03;7.30;99.90
2158;DHT22;41972;48.774;9.282;2023-04-16T08:09:29;7.30;99.90
2158;DHT22;41972;48.774;9.282;2023-04-16T08:11:55;7.30;99.90
2158;DHT22;41972;48.774;9.282;2023-04-16T08:14:20;7.30;99.90
2158;DHT22;41972;48.774;9.282;2023-04-16T08:16:46;7.30;99.90
2158;DHT22;41972;48.774;9.282;2023-04-16T08:19:11;7.30;99.90
2158;DHT22;41972;48.774;9.282;2023-04-16T08:21:38;7.30;99.90
2158;DHT22;41972;48.774;9.282;2023-04-16T08:24:04;7.30;99.90
2158;DHT22;41972;48.774;9.282;2023-04-16T08:26:30;7.30;99.90
2158;DHT22;41972;48.774;9.282;2023-04-16T08:28:55;7.40;99.90
2158;DHT22;41972;48.774;9.282;2023-04-16T08:31:21;7.30;99.90
2158;DHT22;41972;48.774;9.282;2023-04-16T08:33:46;7.30;99.90
2158;DHT22;41972;48.774;9.282;2023-04-16T08:36:12;7.30;99.90
2158;DHT22;41972;48.774;9.282;2023-04-16T08:38:37;7.30;99.90
2158;DHT22;41972;48.774;9.282;2023-04-16T08:41:05;7.30;99.90
2158;DHT22;41972;48.774;9.282;2023-04-16T08:43:36;7.30;99.90
2158;DHT22;41972;48.774;9.282;2023-04-16T08:46:02;7.30;99.90
2158;DHT22;41972;48.774;9.282;2023-04-16T08:48:32;7.30;99.90
2158;DHT22;41972;48.774;9.282;2023-04-16T08:50:59;7.30;99.90
2158;DHT22;41972;48.774;9.282;2023-04-16T08:53:34;7.30;99.90
2158;DHT22;41972;48.774;9.282;2023-04-16T08:56:03;7.40;99.90
2158;DHT22;41972;48.774;9.282;2023-04-16T08:58:31;7.40;99.90
2158;DHT22;41972;48.774;9.282;2023-04-16T09:00:59;7.40;99.90
2158;DHT22;41972;48.774;9.282;2023-04-16T09:03:27;7.40;99.90
2158;DHT22;41972;48.774;9.282;2023-04-16T09:05:55;7.40;99.90
2158;DHT22;41972;48.774;9.282;2023-04-16T09:08:24;7.40;99.90
2158;DHT22;41972;48.774;9.282;2023-04-16T09:10:50;7.50;99.90
2158;DHT22;41972;48.774;9.282;2023-04-16T09:13:16;7.50;99.90
2158;DHT22;41972;48.774;9.282;2023-04-16T09:15:44;7.60;99.90
2158;DHT22;41972;48.774;9.282;2023-04-16T09:18:10;7.50;99.90
2158;DHT22;41972;48.774;9.282;2023-04-16T09:20:37;7.60;99.90
2158;DHT22;41972;48.774;9.282;2023-04-16T09:23:03;7.60;99.90
2158;DHT22;41972;48.774;9.282;2023-04-16T09:25:32;7.50;99.90
2158;DHT22;41972;48.774;9.282;2023-04-16T09:27:59;7.60;99.90
2158;DHT22;41972;48.774;9.282;2023-04-16T09:30:26;7.50;99.90
2158;DHT22;41972;48.774;9.282;2023-04-16T09:35:53;7.50;99.90
2158;DHT22;41972;48.774;9.282;2023-04-16T09:38:19;7.20;99.90
2158;DHT22;41972;48.774;9.282;2023-04-16T09:40:45;7.50;99.90
2158;DHT22;41972;48.774;9.282;2023-04-16T09:43:12;7.60;99.90
2158;DHT22;41972;48.774;9.282;2023-04-16T09:48:14;7.50;99.90
2158;DHT22;41972;48.774;9.282;2023-04-16T09:50:48;7.50;99.90
2158;DHT22;41972;48.774;9.282;2023-04-16T09:53:26;7.60;99.90
2158;DHT22;41972;48.774;9.282;2023-04-16T09:55:58;7.80;99.90
2158;DHT22;41972;48.774;9.282;2023-04-16T09:58:40;7.60;99.90
2158;DHT22;41972;48.774;9.282;2023-04-16T10:01:08;7.70;99.90
2158;DHT22;41972;48.774;9.282;2023-04-16T10:03:36;7.70;99.90
2158;DHT22;41972;48.774;9.282;2023-04-16T10:06:28;7.60;99.90
2158;DHT22;41972;48.774;9.282;2023-04-16T10:08:54;7.60;99.90
2158;DHT22;41972;48.774;9.282;2023-04-16T10:11:23;7.60;99.90
2158;DHT22;41972;48.774;9.282;2023-04-16T10:13:49;7.70;99.90
2158;DHT22;41972;48.774;9.282;2023-04-16T10:16:15;7.60;99.90
2158;DHT22;41972;48.774;9.282;2023-04-16T10:18:43;7.70;99.90
2158;DHT22;41972;48.774;9.282;2023-04-16T10:21:09;7.60;99.90
2158;DHT22;41972;48.774;9.282;2023-04-16T10:23:40;7.60;99.90
2158;DHT22;41972;48.774;9.282;2023-04-16T10:26:06;7.60;99.90
2158;DHT22;41972;48.774;9.282;2023-04-16T10:28:31;7.50;99.90
2158;DHT22;41972;48.774;9.282;2023-04-16T10:31:01;7.50;99.90
2158;DHT22;41972;48.774;9.282;2023-04-16T10:33:30;7.60;99.90
2158;DHT22;41972;48.774;9.282;2023-04-16T10:38:34;7.60;99.90
2158;DHT22;41972;48.774;9.282;2023-04-16T10:41:03;7.60;99.90
2158;DHT22;41972;48.774;9.282;2023-04-16T10:43:29;7.50;99.90
2158;DHT22;41972;48.774;9.282;2023-04-16T10:45:55;8.90;99.90
2158;DHT22;41972;48.774;9.282;2023-04-16T10:48:23;7.70;99.90
2158;DHT22;41972;48.774;9.282;2023-04-16T10:50:56;7.70;99.90
2158;DHT22;41972;48.774;9.282;2023-04-16T10:53:26;7.80;99.90
2158;DHT22;41972;48.774;9.282;2023-04-16T10:58:30;7.80;99.90
2158;DHT22;41972;48.774;9.282;2023-04-16T11:01:00;7.90;99.90
2158;DHT22;41972;48.774;9.282;2023-04-16T11:03:30;8.00;99.90
2158;DHT22;41972;48.774;9.282;2023-04-16T11:06:13;7.90;99.90
2158;DHT22;41972;48.774;9.282;2023-04-16T11:08:39;7.90;99.90
2158;DHT22;41972;48.774;9.282;2023-04-16T11:11:05;8.00;99.90
2158;DHT22;41972;48.774;9.282;2023-04-16T11:13:31;8.10;99.90
2158;DHT22;41972;48.774;9.282;2023-04-16T11:15:57;8.10;99.90
2158;DHT22;41972;48.774;9.282;2023-04-16T11:18:23;8.00;99.90
2158;DHT22;41972;48.774;9.282;2023-04-16T11:20:50;7.90;99.90
2158;DHT22;41972;48.774;9.282;2023-04-16T11:23:16;8.00;99.90
2158;DHT22;41972;48.774;9.282;2023-04-16T11:25:41;8.00;99.90
2158;DHT22;41972;48.774;9.282;2023-04-16T11:28:07;7.90;99.90
2158;DHT22;41972;48.774;9.282;2023-04-16T11:30:41;7.90;99.90
2158;DHT22;41972;48.774;9.282;2023-04-16T11:33:08;7.90;99.90
2158;DHT22;41972;48.774;9.282;2023-04-16T11:35:36;7.80;99.90
2158;DHT22;41972;48.774;9.282;2023-04-16T11:38:03;7.80;99.90
2158;DHT22;41972;48.774;9.282;2023-04-16T11:40:30;7.70;99.90
2158;DHT22;41972;48.774;9.282;2023-04-16T11:43:01;7.80;99.90
2158;DHT22;41972;48.774;9.282;2023-04-16T11:45:27;7.80;99.90
2158;DHT22;41972;48.774;9.282;2023-04-16T11:47:52;7.80;99.90
2158;DHT22;41972;48.774;9.282;2023-04-16T11:50:23;7.80;99.90
2158;DHT22;41972;48.774;9.282;2023-04-16T11:52:53;9.00;99.90
2158;DHT22;41972;48.774;9.282;2023-04-16T11:55:19;7.70;99.90
2158;DHT22;41972;48.774;9.282;2023-04-16T11:57:45;7.70;99.90
2158;DHT22;41972;48.774;9.282;2023-04-16T12:00:11;7.80;99.90
2158;DHT22;41972;48.774;9.282;2023-04-16T12:02:48;7.90;99.90
2158;DHT22;41972;48.774;9.282;2023-04-16T12:05:30;7.80;99.90
2158;DHT22;41972;48.774;9.282;2023-04-16T12:07:57;7.80;99.90
2158;DHT22;41972;48.774;9.282;2023-04-16T12:10:24;7.90;99.90
2158;DHT22;41972;48.774;9.282;2023-04-16T12:12:50;7.90;99.90
2158;DHT22;41972;48.774;9.282;2023-04-16T12:15:16;7.90;99.90
2158;DHT22;41972;48.774;9.282;2023-04-16T12:17:42;7.90;99.90
2158;DHT22;41972;48.774;9.282;2023-04-16T12:20:12;7.80;99.90
2158;DHT22;41972;48.774;9.282;2023-04-16T12:22:46;7.90;99.90
2158;DHT22;41972;48.774;9.282;2023-04-16T12:25:14;7.80;99.90
2158;DHT22;41972;48.774;9.282;2023-04-16T12:27:53;7.90;99.90
2158;DHT22;41972;48.774;9.282;2023-04-16T12:30:24;8.00;99.90
2158;DHT22;41972;48.774;9.282;2023-04-16T12:35:35;8.10;99.90
2158;DHT22;41972;48.774;9.282;2023-04-16T12:38:01;8.10;99.90
2158;DHT22;41972;48.774;9.282;2023-04-16T12:40:27;8.00;99.90
2158;DHT22;41972;48.774;9.282;2023-04-16T12:42:53;8.00;99.90
2158;DHT22;41972;48.774;9.282;2023-04-16T12:45:19;8.20;99.90
2158;DHT22;41972;48.774;9.282;2023-04-16T12:47:45;8.10;99.90
2158;DHT22;41972;48.774;9.282;2023-04-16T12:50:11;8.00;99.90
2158;DHT22;41972;48.774;9.282;2023-04-16T12:52:36;8.00;99.90
2158;DHT22;41972;48.774;9.282;2023-04-16T12:55:02;8.00;99.90
2158;DHT22;41972;48.774;9.282;2023-04-16T12:57:28;8.10;99.90
2158;DHT22;41972;48.774;9.282;2023-04-16T12:59:54;8.20;99.90
2158;DHT22;41972;48.774;9.282;2023-04-16T13:02:21;8.00;99.90
2158;DHT22;41972;48.774;9.282;2023-04-16T13:04:47;8.00;99.90
2158;DHT22;41972;48.774;9.282;2023-04-16T13:07:13;8.00;99.90
2158;DHT22;41972;48.774;9.282;2023-04-16T13:09:39;8.10;99.90
2158;DHT22;41972;48.774;9.282;2023-04-16T13:12:05;8.20;99.90
2158;DHT22;41972;48.774;9.282;2023-04-16T13:14:31;8.20;99.90
2158;DHT22;41972;48.774;9.282;2023-04-16T13:16:56;8.20;99.90
2158;DHT22;41972;48.774;9.282;2023-04-16T13:19:22;8.20;99.90
2158;DHT22;41972;48.774;9.282;2023-04-16T13:21:48;8.00;99.90
2158;DHT22;41972;48.774;9.282;2023-04-16T13:24:13;8.00;99.90
2158;DHT22;41972;48.774;9.282;2023-04-16T13:26:39;8.00;99.90
2158;DHT22;41972;48.774;9.282;2023-04-16T13:29:04;8.00;99.90
2158;DHT22;41972;48.774;9.282;2023-04-16T13:31:30;8.00;99.90
2158;DHT22;41972;48.774;9.282;2023-04-16T13:33:55;8.10;99.90
2158;DHT22;41972;48.774;9.282;2023-04-16T13:36:21;8.10;99.90
2158;DHT22;41972;48.774;9.282;2023-04-16T13:38:46;8.00;99.90
2158;DHT22;41972;48.774;9.282;2023-04-16T13:41:12;8.00;99.90
2158;DHT22;41972;48.774;9.282;2023-04-16T13:43:37;8.10;99.90
2158;DHT22;41972;48.774;9.282;2023-04-16T13:46:03;8.20;99.90
2158;DHT22;41972;48.774;9.282;2023-04-16T13:48:29;8.20;99.90
2158;DHT22;41972;48.774;9.282;2023-04-16T13:50:54;8.20;99.90
2158;DHT22;41972;48.774;9.282;2023-04-16T13:53:20;8.30;99.90
2158;DHT22;41972;48.774;9.282;2023-04-16T13:55:46;8.30;99.90
2158;DHT22;41972;48.774;9.282;2023-04-16T13:58:14;8.30;99.90
2158;DHT22;41972;48.774;9.282;2023-04-16T14:00:39;8.20;99.90
2158;DHT22;41972;48.774;9.282;2023-04-16T14:03:06;8.10;99.90
2158;DHT22;41972;48.774;9.282;2023-04-16T14:05:31;9.40;99.90
2158;DHT22;41972;48.774;9.282;2023-04-16T14:07:57;8.10;99.90
2158;DHT22;41972;48.774;9.282;2023-04-16T14:10:22;8.00;99.90
2158;DHT22;41972;48.774;9.282;2023-04-16T14:12:48;8.10;99.90
2158;DHT22;41972;48.774;9.282;2023-04-16T14:15:14;8.10;99.90
2158;DHT22;41972;48.774;9.282;2023-04-16T14:17:41;8.10;99.90
2158;DHT22;41972;48.774;9.282;2023-04-16T14:20:07;8.20;99.90
2158;DHT22;41972;48.774;9.282;2023-04-16T14:22:33;8.20;99.90
2158;DHT22;41972;48.774;9.282;2023-04-16T14:24:58;8.20;99.90
2158;DHT22;41972;48.774;9.282;2023-04-16T14:27:25;8.10;99.90
2158;DHT22;41972;48.774;9.282;2023-04-16T14:29:51;8.20;99.90
2158;DHT22;41972;48.774;9.282;2023-04-16T14:32:17;8.10;99.90
2158;DHT22;41972;48.774;9.282;2023-04-16T14:34:42;8.30;99.90
2158;DHT22;41972;48.774;9.282;2023-04-16T14:37:08;8.30;99.90
2158;DHT22;41972;48.774;9.282;2023-04-16T14:39:33;8.30;99.90
2158;DHT22;41972;48.774;9.282;2023-04-16T14:42:00;8.20;99.90
2158;DHT22;41972;48.774;9.282;2023-04-16T14:44:26;8.20;99.90
2158;DHT22;41972;48.774;9.282;2023-04-16T14:46:51;8.30;99.90
2158;DHT22;41972;48.774;9.282;2023-04-16T14:49:18;8.20;99.90
2158;DHT22;41972;48.774;9.282;2023-04-16T14:51:44;8.20;99.90
2158;DHT22;41972;48.774;9.282;2023-04-16T14:54:10;8.10;99.90
2158;DHT22;41972;48.774;9.282;2023-04-16T14:56:36;8.20;99.90
2158;DHT22;41972;48.774;9.282;2023-04-16T14:59:02;8.30;99.90
2158;DHT22;41972;48.774;9.282;2023-04-16T15:01:27;8.30;99.90
2158;DHT22;41972;48.774;9.282;2023-04-16T15:03:54;8.30;99.90
2158;DHT22;41972;48.774;9.282;2023-04-16T15:06:21;8.30;99.90
2158;DHT22;41972;48.774;9.282;2023-04-16T15:08:46;8.30;99.90
2158;DHT22;41972;48.774;9.282;2023-04-16T15:11:12;8.20;99.90
2158;DHT22;41972;48.774;9.282;2023-04-16T15:13:37;8.20;99.90
2158;DHT22;41972;48.774;9.282;2023-04-16T15:16:03;8.30;99.90
2158;DHT22;41972;48.774;9.282;2023-04-16T15:18:30;8.40;99.90
2158;DHT22;41972;48.774;9.282;2023-04-16T15:20:56;8.40;99.90
2158;DHT22;41972;48.774;9.282;2023-04-16T15:23:21;8.30;99.90
2158;DHT22;41972;48.774;9.282;2023-04-16T15:25:47;8.30;99.90
2158;DHT22;41972;48.774;9.282;2023-04-16T15:28:12;8.90;99.90
2158;DHT22;41972;48.774;9.282;2023-04-16T15:30:41;8.20;99.90
2158;DHT22;41972;48.774;9.282;2023-04-16T15:33:07;8.20;99.90
2158;DHT22;41972;48.774;9.282;2023-04-16T15:35:34;8.20;99.90
2158;DHT22;41972;48.774;9.282;2023-04-16T15:38:00;8.20;99.90
2158;DHT22;41972;48.774;9.282;2023-04-16T15:40:26;8.30;99.90
2158;DHT22;41972;48.774;9.282;2023-04-16T15:42:54;8.30;99.90
2158;DHT22;41972;48.774;9.282;2023-04-16T15:45:20;8.10;99.90
2158;DHT22;41972;48.774;9.282;2023-04-16T15:47:45;8.20;99.90
2158;DHT22;41972;48.774;9.282;2023-04-16T15:50:18;8.10;99.90
2158;DHT22;41972;48.774;9.282;2023-04-16T15:52:45;8.10;99.90
2158;DHT22;41972;48.774;9.282;2023-04-16T15:55:10;8.20;99.90
2158;DHT22;41972;48.774;9.282;2023-04-16T15:57:36;8.10;99.90
2158;DHT22;41972;48.774;9.282;2023-04-16T16:00:02;8.10;99.90
2158;DHT22;41972;48.774;9.282;2023-04-16T16:02:40;8.20;99.90
2158;DHT22;41972;48.774;9.282;2023-04-16T16:05:09;8.10;99.90
2158;DHT22;41972;48.774;9.282;2023-04-16T16:07:35;8.20;99.90
2158;DHT22;41972;48.774;9.282;2023-04-16T16:10:00;8.10;99.90